Time;durP1;ratioP1;P1;durP2;ratioP2;P2;SDS_P1;SDS_P2;PMS_P1;PMS_P2;Temp;Humidity;BMP_temperature;BMP_pressure;BME280_temperature;BME280_humidity;BME280_pressure;Samples;Min_cycle;Max_cycle;Signal;HPM_P1;HPM_P2
2023/04/28 00:01:23;;;;;;;81.20;30.30;;;;;;;15.72;100.00;100365.64;107014;1285;58054;-85
2023/04/28 00:03:49;;;;;;;63.00;25.40;;;;;;;15.74;100.00;100356.63;107002;1285;58193;-85
2023/04/28 00:06:14;;;;;;;56.60;24.20;;;;;;;15.73;100.00;100356.92;107028;1285;58097;-85
2023/04/28 00:08:40;;;;;;;69.70;26.00;;;;;;;15.80;100.00;100360.21;106773;1289;58062;-85
2023/04/28 00:11:10;;;;;;;52.30;21.60;;;;;;;15.86;100.00;100363.97;107003;1286;58261;-85
2023/04/28 00:13:36;;;;;;;45.40;18.90;;;;;;;15.95;100.00;100359.95;106698;1286;73413;-85
2023/04/28 00:16:01;;;;;;;31.50;16.30;;;;;;;15.99;100.00;100355.14;106982;1285;58107;-85
2023/04/28 00:18:27;;;;;;;36.20;17.30;;;;;;;15.98;100.00;100358.30;107005;1285;58330;-82
2023/04/28 00:20:54;;;;;;;36.80;17.30;;;;;;;16.07;100.00;100359.75;106418;1291;58400;-83
2023/04/28 00:23:19;;;;;;;31.40;16.40;;;;;;;16.07;100.00;100366.02;106981;1286;58701;-83
2023/04/28 00:25:50;;;;;;;32.10;15.90;;;;;;;16.06;100.00;100369.73;106979;1286;58093;-83
2023/04/28 00:28:16;;;;;;;32.00;15.80;;;;;;;16.08;100.00;100372.77;106983;1286;61848;-82
2023/04/28 00:30:41;;;;;;;29.40;15.00;;;;;;;16.02;100.00;100376.05;107010;1284;57978;-82
2023/04/28 00:33:07;;;;;;;29.30;15.20;;;;;;;16.08;100.00;100378.54;106958;1285;58097;-83
2023/04/28 00:35:32;;;;;;;29.20;15.40;;;;;;;16.20;100.00;100376.20;106999;1286;58240;-83
2023/04/28 00:37:58;;;;;;;28.20;14.60;;;;;;;16.22;100.00;100381.80;107036;1285;58535;-83
2023/04/28 00:40:35;;;;;;;33.90;15.80;;;;;;;16.05;100.00;100381.88;107001;1285;58201;-83
2023/04/28 00:43:02;;;;;;;29.10;15.10;;;;;;;16.05;100.00;100380.34;106972;1285;72728;-83
2023/04/28 00:45:27;;;;;;;28.00;14.80;;;;;;;16.05;100.00;100374.63;107018;1287;74342;-83
2023/04/28 00:47:54;;;;;;;31.40;15.20;;;;;;;16.04;100.00;100375.96;106516;1286;58160;-83
2023/04/28 00:50:21;;;;;;;24.90;14.40;;;;;;;16.06;100.00;100375.42;106977;1286;58085;-83
2023/04/28 00:52:46;;;;;;;25.90;14.30;;;;;;;16.07;100.00;100379.98;107003;1286;58041;-82
2023/04/28 00:55:14;;;;;;;30.00;14.60;;;;;;;16.10;100.00;100380.14;106989;1285;58382;-83
2023/04/28 00:57:41;;;;;;;27.80;14.20;;;;;;;16.15;100.00;100376.95;106979;1285;73498;-83
2023/04/28 01:00:07;;;;;;;29.10;14.80;;;;;;;16.13;100.00;100375.52;106985;1285;58038;-83
2023/04/28 01:02:35;;;;;;;26.50;14.10;;;;;;;16.11;100.00;100380.08;106957;1286;62585;-83
2023/04/28 01:05:01;;;;;;;29.70;14.50;;;;;;;16.10;100.00;100377.70;106989;1286;60191;-83
2023/04/28 01:07:27;;;;;;;26.60;14.20;;;;;;;16.12;100.00;100377.33;106828;1286;58241;-83
2023/04/28 01:09:53;;;;;;;28.20;15.00;;;;;;;16.19;100.00;100378.39;106542;1286;58146;-82
2023/04/28 01:12:19;;;;;;;28.30;14.70;;;;;;;16.16;100.00;100378.81;106511;1286;58903;-82
2023/04/28 01:14:45;;;;;;;33.60;15.60;;;;;;;16.15;100.00;100379.54;106786;1285;58725;-82
2023/04/28 01:17:11;;;;;;;30.20;14.50;;;;;;;16.14;100.00;100381.85;106858;1285;57995;-82
2023/04/28 01:19:36;;;;;;;28.50;14.70;;;;;;;16.26;100.00;100377.91;106861;1285;58140;-83
2023/04/28 01:22:03;;;;;;;35.50;16.20;;;;;;;16.28;100.00;100383.31;106643;1285;58215;-82
2023/04/28 01:24:29;;;;;;;31.10;15.80;;;;;;;16.34;100.00;100385.33;106815;1285;61197;-82
2023/04/28 01:26:54;;;;;;;29.90;15.70;;;;;;;16.11;100.00;100387.69;106829;1285;58092;-82
2023/04/28 01:29:20;;;;;;;30.80;15.90;;;;;;;16.10;100.00;100397.34;106670;1285;58209;-83
2023/04/28 01:31:45;;;;;;;28.80;15.10;;;;;;;16.09;100.00;100400.50;106828;1285;58354;-82
2023/04/28 01:34:11;;;;;;;28.20;16.20;;;;;;;16.03;100.00;100402.84;106872;1286;58602;-82
2023/04/28 01:36:36;;;;;;;28.20;15.10;;;;;;;16.03;100.00;100407.58;106859;1286;60057;-83
2023/04/28 01:39:02;;;;;;;31.40;15.10;;;;;;;16.08;100.00;100413.77;106730;1286;58242;-82
2023/04/28 01:41:28;;;;;;;26.20;14.50;;;;;;;16.12;100.00;100416.70;106872;1285;58216;-82
2023/04/28 01:43:53;;;;;;;29.50;15.50;;;;;;;16.14;100.00;100416.54;106880;1285;58204;-83
2023/04/28 01:46:19;;;;;;;30.60;15.00;;;;;;;16.13;100.00;100416.47;106566;1284;58364;-82
2023/04/28 01:48:45;;;;;;;28.70;15.10;;;;;;;16.11;100.00;100416.05;106901;1286;58042;-83
2023/04/28 01:51:10;;;;;;;29.80;16.50;;;;;;;16.10;100.00;100417.29;106633;1286;58521;-82
2023/04/28 01:53:35;;;;;;;31.00;16.50;;;;;;;16.09;100.00;100416.54;106808;1285;58153;-83
2023/04/28 01:56:01;;;;;;;28.60;16.00;;;;;;;16.07;100.00;100419.52;106517;1286;58339;-83
2023/04/28 01:58:27;;;;;;;32.20;16.30;;;;;;;16.21;100.00;100419.15;106856;1285;58446;-83
2023/04/28 02:00:52;;;;;;;27.80;15.60;;;;;;;16.11;100.00;100421.87;106833;1286;58258;-82
2023/04/28 02:03:18;;;;;;;31.60;15.50;;;;;;;16.21;100.00;100417.95;106795;1286;58146;-82
2023/04/28 02:05:43;;;;;;;28.00;15.80;;;;;;;16.27;100.00;100420.05;106898;1285;58086;-83
2023/04/28 02:08:09;;;;;;;34.60;15.70;;;;;;;16.30;100.00;100416.28;106852;1286;58119;-83
2023/04/28 02:10:34;;;;;;;35.40;15.80;;;;;;;16.30;100.00;100418.96;106764;1285;58289;-83
2023/04/28 02:13:00;;;;;;;35.80;16.30;;;;;;;16.29;100.00;100428.48;107023;1286;58635;-83
2023/04/28 02:15:25;;;;;;;33.70;16.50;;;;;;;16.32;100.00;100432.52;106504;1286;58265;-83
2023/04/28 02:17:51;;;;;;;31.70;17.00;;;;;;;16.36;100.00;100435.77;106807;1284;58591;-83
2023/04/28 02:20:16;;;;;;;29.80;16.20;;;;;;;16.40;100.00;100441.55;106558;1285;58671;-83
2023/04/28 02:22:42;;;;;;;35.20;17.20;;;;;;;16.43;100.00;100441.45;106492;1286;59035;-83
2023/04/28 02:25:08;;;;;;;30.90;15.80;;;;;;;16.45;100.00;100441.73;107020;1284;58245;-83
2023/04/28 02:27:37;;;;;;;32.80;16.80;;;;;;;16.53;100.00;100448.54;106992;1285;61285;-83
2023/04/28 02:30:04;;;;;;;30.70;16.50;;;;;;;16.54;100.00;100451.66;106531;1286;74568;-83
2023/04/28 02:32:30;;;;;;;30.10;16.60;;;;;;;16.53;100.00;100452.54;107028;1285;74157;-83
2023/04/28 02:34:56;;;;;;;36.20;16.80;;;;;;;16.52;100.00;100459.41;106923;1285;58255;-83
2023/04/28 02:37:21;;;;;;;32.50;16.40;;;;;;;16.58;100.00;100459.31;106954;1285;58356;-83
2023/04/28 02:39:47;;;;;;;30.00;16.30;;;;;;;16.62;100.00;100463.30;106728;1285;58282;-83
2023/04/28 02:42:13;;;;;;;28.80;15.80;;;;;;;16.60;100.00;100469.70;106933;1286;58396;-83
2023/04/28 02:44:38;;;;;;;31.00;16.20;;;;;;;16.43;100.00;100477.52;106400;1289;58853;-83
2023/04/28 02:47:04;;;;;;;30.20;16.10;;;;;;;16.53;100.00;100478.88;106373;1289;62659;-83
2023/04/28 02:49:30;;;;;;;32.00;16.50;;;;;;;16.62;100.00;100481.80;106388;1289;58470;-83
2023/04/28 02:51:55;;;;;;;28.80;15.90;;;;;;;16.65;100.00;100477.98;106426;1289;58284;-83
2023/04/28 02:54:26;;;;;;;32.50;17.00;;;;;;;16.67;100.00;100472.83;106405;1288;58552;-83
2023/04/28 02:56:56;;;;;;;30.20;15.80;;;;;;;16.67;100.00;100475.35;106361;1288;73530;-82
2023/04/28 02:59:22;;;;;;;32.00;15.90;;;;;;;16.66;100.00;100474.48;106348;1289;62699;-82
2023/04/28 03:01:48;;;;;;;30.90;16.00;;;;;;;16.62;100.00;100476.04;106430;1289;58310;-83
2023/04/28 03:04:15;;;;;;;29.70;16.30;;;;;;;16.55;100.00;100472.70;106422;1288;58367;-83
2023/04/28 03:06:41;;;;;;;32.40;16.90;;;;;;;16.54;100.00;100474.19;106416;1288;58317;-83
2023/04/28 03:09:08;;;;;;;32.70;16.30;;;;;;;16.55;100.00;100472.44;106370;1289;58264;-83
2023/04/28 03:11:33;;;;;;;30.90;15.90;;;;;;;16.46;100.00;100470.54;106385;1288;58654;-82
2023/04/28 03:13:59;;;;;;;35.20;17.30;;;;;;;16.47;100.00;100470.35;106365;1289;58762;-82
2023/04/28 03:16:24;;;;;;;33.40;16.20;;;;;;;16.47;100.00;100466.64;106388;1289;58250;-83
2023/04/28 03:18:50;;;;;;;36.10;16.40;;;;;;;16.50;100.00;100467.68;106390;1289;58312;-82
2023/04/28 03:21:15;;;;;;;37.40;17.60;;;;;;;16.53;100.00;100470.73;106403;1289;58319;-82
2023/04/28 03:23:41;;;;;;;32.80;16.50;;;;;;;16.49;100.00;100472.71;106659;1286;58372;-82
2023/04/28 03:26:07;;;;;;;34.90;17.30;;;;;;;16.64;100.00;100473.21;106798;1285;58310;-82
2023/04/28 03:28:32;;;;;;;32.50;16.40;;;;;;;16.72;100.00;100471.23;106757;1286;58373;-83
2023/04/28 03:30:58;;;;;;;33.70;18.00;;;;;;;16.77;100.00;100466.24;106884;1285;58555;-82
2023/04/28 03:33:23;;;;;;;35.20;17.10;;;;;;;16.77;100.00;100463.89;106807;1284;58427;-82
2023/04/28 03:35:49;;;;;;;42.80;18.10;;;;;;;16.76;100.00;100456.78;106417;1286;73575;-82
2023/04/28 03:38:15;;;;;;;36.50;16.90;;;;;;;16.67;100.00;100456.79;106861;1285;58526;-82
2023/04/28 03:40:40;;;;;;;37.00;18.10;;;;;;;16.69;100.00;100451.46;106818;1285;58617;-82
2023/04/28 03:43:06;;;;;;;35.30;17.30;;;;;;;16.68;100.00;100444.63;106501;1286;58438;-81
2023/04/28 03:45:31;;;;;;;36.70;20.00;;;;;;;16.71;100.00;100442.77;106926;1285;58246;-82
2023/04/28 03:47:57;;;;;;;45.10;18.70;;;;;;;16.71;100.00;100441.02;106845;1285;74481;-82
2023/04/28 03:50:22;;;;;;;40.20;18.30;;;;;;;16.76;100.00;100443.64;106839;1284;58293;-81
2023/04/28 03:52:48;;;;;;;35.00;18.00;;;;;;;16.74;100.00;100442.88;106741;1285;58257;-81
2023/04/28 03:55:33;;;;;;;35.60;17.70;;;;;;;16.79;100.00;100432.95;106390;1288;59980;-81
2023/04/28 03:57:59;;;;;;;41.50;18.10;;;;;;;16.84;100.00;100426.90;106438;1288;58812;-81
2023/04/28 04:00:25;;;;;;;39.30;18.70;;;;;;;16.82;100.00;100426.40;106408;1288;58452;-81
2023/04/28 04:02:50;;;;;;;44.50;19.40;;;;;;;16.75;100.00;100428.86;106117;1288;58357;-81
2023/04/28 04:05:16;;;;;;;48.10;20.30;;;;;;;16.71;100.00;100422.63;106443;1288;58420;-81
2023/04/28 04:07:41;;;;;;;47.30;20.50;;;;;;;16.69;100.00;100412.77;106226;1289;74519;-81
2023/04/28 04:10:07;;;;;;;53.40;21.50;;;;;;;16.65;100.00;100407.95;106404;1288;59117;-82
2023/04/28 04:12:33;;;;;;;47.10;21.10;;;;;;;16.55;100.00;100400.97;106320;1292;58315;-81
2023/04/28 04:14:58;;;;;;;50.20;20.60;;;;;;;16.51;100.00;100393.94;106283;1290;58360;-82
2023/04/28 04:17:24;;;;;;;47.40;21.70;;;;;;;16.43;100.00;100387.75;106472;1288;58363;-82
2023/04/28 04:19:49;;;;;;;45.10;20.70;;;;;;;16.37;100.00;100381.52;106365;1288;74391;-82
2023/04/28 04:22:15;;;;;;;47.00;20.20;;;;;;;16.31;100.00;100370.48;106378;1289;58924;-83
2023/04/28 04:24:40;;;;;;;51.90;20.90;;;;;;;16.30;100.00;100350.70;106243;1288;58292;-82
2023/04/28 04:27:06;;;;;;;45.60;19.70;;;;;;;16.26;100.00;100346.42;106695;1285;58300;-82
2023/04/28 04:29:31;;;;;;;41.40;19.60;;;;;;;16.21;100.00;100340.06;106918;1285;58285;-82
2023/04/28 04:31:57;;;;;;;49.60;19.40;;;;;;;16.16;100.00;100353.65;106816;1285;58304;-83
2023/04/28 04:34:22;;;;;;;43.60;19.20;;;;;;;16.15;100.00;100363.58;106599;1285;58365;-81
2023/04/28 04:36:48;;;;;;;49.70;19.10;;;;;;;16.15;100.00;100369.41;106838;1285;59217;-82
2023/04/28 04:39:13;;;;;;;43.40;17.80;;;;;;;16.18;100.00;100374.93;106553;1287;58394;-82
2023/04/28 04:41:39;;;;;;;44.80;19.50;;;;;;;16.17;100.00;100378.48;106601;1287;58360;-83
2023/04/28 04:44:04;;;;;;;43.10;17.90;;;;;;;16.18;100.00;100379.89;106566;1287;58300;-83
2023/04/28 04:46:30;;;;;;;44.10;18.70;;;;;;;16.17;100.00;100378.16;106549;1287;58732;-82
2023/04/28 04:48:56;;;;;;;41.10;18.60;;;;;;;16.21;100.00;100382.33;106288;1289;58573;-82
2023/04/28 04:51:22;;;;;;;51.70;18.70;;;;;;;16.21;100.00;100384.60;106575;1288;58313;-83
2023/04/28 04:53:47;;;;;;;44.20;19.00;;;;;;;16.22;100.00;100389.63;106225;1288;58478;-82
2023/04/28 04:56:13;;;;;;;48.80;18.90;;;;;;;16.18;100.00;100385.64;106586;1287;59178;-83
2023/04/28 04:58:38;;;;;;;47.40;19.40;;;;;;;16.17;100.00;100389.09;106238;1289;58739;-82
2023/04/28 05:01:04;;;;;;;49.00;20.30;;;;;;;16.21;100.00;100389.00;106625;1287;58255;-82
2023/04/28 05:03:30;;;;;;;56.60;20.00;;;;;;;16.24;100.00;100393.23;106604;1287;58313;-82
2023/04/28 05:05:55;;;;;;;46.30;19.30;;;;;;;16.27;100.00;100402.04;106551;1288;58277;-82
2023/04/28 05:08:21;;;;;;;45.90;18.30;;;;;;;16.31;100.00;100408.97;106269;1288;58286;-83
2023/04/28 05:10:47;;;;;;;40.10;17.30;;;;;;;16.32;100.00;100412.17;106738;1285;58618;-82
2023/04/28 05:13:12;;;;;;;40.10;17.50;;;;;;;16.30;100.00;100421.63;106966;1283;58660;-83
2023/04/28 05:15:38;;;;;;;40.40;17.60;;;;;;;16.30;100.00;100436.73;107033;1283;58197;-83
2023/04/28 05:18:09;;;;;;;42.40;17.90;;;;;;;16.35;100.00;100450.09;107068;1283;59077;-83
2023/04/28 05:20:35;;;;;;;40.20;18.00;;;;;;;16.39;100.00;100463.61;107064;1283;73121;-83
2023/04/28 05:23:01;;;;;;;47.40;18.40;;;;;;;16.40;100.00;100463.42;107053;1283;58613;-83
2023/04/28 05:25:27;;;;;;;41.00;16.90;;;;;;;16.44;100.00;100452.08;106824;1283;58305;-82
2023/04/28 05:27:52;;;;;;;39.90;17.00;;;;;;;16.50;100.00;100448.64;106870;1283;58579;-81
2023/04/28 05:30:18;;;;;;;45.50;17.30;;;;;;;16.50;100.00;100443.02;107100;1283;58242;-82
2023/04/28 05:32:43;;;;;;;40.30;17.60;;;;;;;16.48;100.00;100434.04;107124;1283;58171;-80
2023/04/28 05:35:09;;;;;;;40.30;16.50;;;;;;;16.55;100.00;100425.13;106564;1283;72938;-80
2023/04/28 05:37:36;;;;;;;36.80;15.90;;;;;;;16.66;100.00;100423.71;107059;1283;58230;-80
2023/04/28 05:40:02;;;;;;;42.40;16.50;;;;;;;16.65;100.00;100428.21;107122;1283;58183;-81
2023/04/28 05:42:28;;;;;;;40.10;17.30;;;;;;;16.67;100.00;100437.20;107095;1283;58719;-81
2023/04/28 05:44:53;;;;;;;35.40;16.10;;;;;;;16.69;100.00;100441.14;106620;1283;58558;-81
2023/04/28 05:47:19;;;;;;;33.70;15.50;;;;;;;16.73;100.00;100440.45;107049;1283;58231;-82
2023/04/28 05:49:47;;;;;;;33.00;15.90;;;;;;;16.83;100.00;100439.89;107095;1283;58201;-81
2023/04/28 05:52:12;;;;;;;30.20;14.40;;;;;;;16.90;100.00;100434.60;106774;1285;73023;-82
2023/04/28 05:54:38;;;;;;;37.60;14.90;;;;;;;16.96;100.00;100440.73;107089;1283;58264;-82
2023/04/28 05:57:03;;;;;;;30.80;15.20;;;;;;;16.93;100.00;100449.55;106813;1283;58381;-82
2023/04/28 05:59:30;;;;;;;34.90;15.20;;;;;;;16.89;100.00;100465.98;107073;1283;58334;-82
2023/04/28 06:01:56;;;;;;;29.40;13.40;;;;;;;16.84;100.00;100480.08;107090;1283;58420;-82
2023/04/28 06:04:21;;;;;;;32.20;13.60;;;;;;;16.80;100.00;100488.44;106918;1283;58210;-81
2023/04/28 06:06:47;;;;;;;30.60;13.80;;;;;;;16.82;100.00;100485.52;107119;1283;58285;-82
2023/04/28 06:09:13;;;;;;;38.30;14.60;;;;;;;16.90;100.00;100485.02;107122;1283;58217;-82
2023/04/28 06:11:38;;;;;;;34.10;14.60;;;;;;;16.88;100.00;100483.96;107089;1283;58455;-81
2023/04/28 06:14:04;;;;;;;31.60;13.20;;;;;;;16.91;100.00;100489.58;107059;1283;58748;-81
2023/04/28 06:16:30;;;;;;;29.10;13.70;;;;;;;16.88;100.00;100499.65;107076;1283;58311;-81
2023/04/28 06:18:55;;;;;;;26.00;13.70;;;;;;;16.87;100.00;100509.26;106456;1288;58379;-81
2023/04/28 06:21:26;;;;;;;29.00;13.50;;;;;;;16.79;100.00;100512.69;106523;1288;58423;-82
2023/04/28 06:23:51;;;;;;;31.80;13.70;;;;;;;16.74;100.00;100507.85;106447;1289;73582;-82
2023/04/28 06:26:17;;;;;;;34.30;15.70;;;;;;;16.70;100.00;100499.59;106519;1288;58665;-81
2023/04/28 06:28:42;;;;;;;30.30;14.60;;;;;;;16.67;100.00;100503.10;106441;1288;58288;-81
2023/04/28 06:31:08;;;;;;;34.20;15.80;;;;;;;16.60;100.00;100507.16;106349;1289;58330;-81
2023/04/28 06:33:35;;;;;;;39.40;16.30;;;;;;;16.58;100.00;100504.09;106562;1288;58760;-80
2023/04/28 06:36:00;;;;;;;37.70;15.70;;;;;;;16.57;100.00;100504.60;106456;1288;73485;-81
2023/04/28 06:38:26;;;;;;;43.00;17.20;;;;;;;16.57;100.00;100506.77;106434;1288;58292;-81
2023/04/28 06:40:52;;;;;;;43.50;17.40;;;;;;;16.56;100.00;100504.95;106497;1288;58279;-81
2023/04/28 06:43:19;;;;;;;36.30;17.00;;;;;;;16.56;100.00;100500.36;106522;1288;58426;-81
2023/04/28 06:45:44;;;;;;;37.00;17.50;;;;;;;16.54;100.00;100497.48;106441;1288;58740;-81
2023/04/28 06:48:10;;;;;;;38.00;17.00;;;;;;;16.52;100.00;100498.00;106499;1288;58430;-81
2023/04/28 06:50:36;;;;;;;41.00;19.10;;;;;;;16.54;100.00;100503.24;106868;1283;58365;-81
2023/04/28 06:53:02;;;;;;;34.00;16.10;;;;;;;16.53;100.00;100510.27;107059;1283;58810;-81
2023/04/28 06:55:28;;;;;;;33.50;16.90;;;;;;;16.47;100.00;100514.20;107085;1283;58866;-81
2023/04/28 06:57:53;;;;;;;36.80;16.70;;;;;;;16.38;100.00;100521.06;106618;1283;58324;-81
2023/04/28 07:00:19;;;;;;;35.20;15.90;;;;;;;16.32;100.00;100527.26;106700;1283;58486;-82
2023/04/28 07:02:52;;;;;;;37.60;15.80;;;;;;;16.29;100.00;100535.53;106451;1283;58428;-81
2023/04/28 07:05:18;;;;;;;33.90;15.90;;;;;;;16.30;100.00;100541.66;106852;1283;60929;-81
2023/04/28 07:07:44;;;;;;;34.10;16.30;;;;;;;16.36;100.00;100543.41;107008;1283;58552;-80
2023/04/28 07:10:10;;;;;;;40.10;17.10;;;;;;;16.41;100.00;100551.85;107068;1283;58332;-80
2023/04/28 07:12:36;;;;;;;35.80;16.10;;;;;;;16.44;100.00;100554.25;107042;1283;58337;-79
2023/04/28 07:15:01;;;;;;;41.40;17.70;;;;;;;16.44;100.00;100560.50;107082;1283;58171;-79
2023/04/28 07:17:27;;;;;;;34.70;16.90;;;;;;;16.39;100.00;100575.28;106850;1283;58275;-79
2023/04/28 07:19:53;;;;;;;40.10;15.30;;;;;;;16.28;100.00;100578.77;107103;1283;58596;-80
2023/04/28 07:22:18;;;;;;;40.10;17.10;;;;;;;16.19;100.00;100583.56;107053;1283;72509;-80
2023/04/28 07:24:44;;;;;;;39.00;15.40;;;;;;;16.14;100.00;100581.52;107095;1283;58208;-79
2023/04/28 07:27:10;;;;;;;42.30;15.90;;;;;;;16.09;100.00;100569.43;107079;1283;58248;-80
2023/04/28 07:29:36;;;;;;;37.30;16.00;;;;;;;16.18;100.00;100552.98;107065;1283;58198;-80
2023/04/28 07:32:03;;;;;;;45.00;17.20;;;;;;;16.27;100.00;100549.75;107096;1283;58305;-80
2023/04/28 07:34:30;;;;;;;39.60;16.50;;;;;;;16.37;100.00;100548.76;107055;1283;58394;-80
2023/04/28 07:36:57;;;;;;;42.30;17.80;;;;;;;16.40;100.00;100544.91;107041;1283;58211;-80
2023/04/28 07:39:22;;;;;;;43.90;16.90;;;;;;;16.43;100.00;100544.41;106884;1283;58278;-79
2023/04/28 07:41:48;;;;;;;35.30;14.90;;;;;;;16.43;100.00;100551.27;106469;1288;58216;-80
2023/04/28 07:44:14;;;;;;;34.30;14.60;;;;;;;16.43;100.00;100562.05;106233;1289;58404;-80
2023/04/28 07:46:40;;;;;;;33.70;15.00;;;;;;;16.44;100.00;100573.13;106489;1288;59029;-80
2023/04/28 07:49:07;;;;;;;38.80;15.90;;;;;;;16.46;100.00;100572.98;106398;1289;61157;-80
2023/04/28 07:51:32;;;;;;;36.70;16.50;;;;;;;16.49;100.00;100567.87;106498;1288;73755;-80
2023/04/28 07:53:58;;;;;;;35.60;15.20;;;;;;;16.52;100.00;100568.95;106478;1289;58353;-80
2023/04/28 07:56:25;;;;;;;36.00;15.60;;;;;;;16.53;100.00;100566.10;106423;1288;58362;-81
2023/04/28 07:58:51;;;;;;;39.30;14.50;;;;;;;16.55;100.00;100557.47;106306;1289;58314;-80
2023/04/28 08:01:17;;;;;;;42.40;15.50;;;;;;;16.56;100.00;100547.00;106511;1288;58328;-81
2023/04/28 08:03:42;;;;;;;30.20;15.20;;;;;;;16.59;100.00;100541.68;106425;1288;58215;-81
2023/04/28 08:06:08;;;;;;;32.00;15.00;;;;;;;16.62;100.00;100547.06;106135;1293;58736;-81
2023/04/28 08:08:34;;;;;;;29.80;14.80;;;;;;;16.62;100.00;100552.06;106384;1289;58283;-81
2023/04/28 08:11:00;;;;;;;36.40;15.50;;;;;;;16.61;100.00;100547.40;106293;1288;58328;-80
2023/04/28 08:13:27;;;;;;;31.90;14.10;;;;;;;16.64;100.00;100527.44;106448;1288;58278;-80
2023/04/28 08:15:55;;;;;;;30.70;14.30;;;;;;;16.72;100.00;100515.14;106242;1289;72092;-81
2023/04/28 08:18:21;;;;;;;26.50;14.00;;;;;;;16.81;100.00;100515.69;106476;1288;72766;-81
2023/04/28 08:20:47;;;;;;;28.70;12.50;;;;;;;17.00;100.00;100517.91;106861;1285;58326;-81
2023/04/28 08:23:12;;;;;;;23.40;11.70;;;;;;;17.03;100.00;100511.31;106844;1285;58685;-81
2023/04/28 08:25:38;;;;;;;22.40;11.40;;;;;;;17.08;100.00;100510.34;106865;1285;58296;-81
2023/04/28 08:28:05;;;;;;;18.70;10.30;;;;;;;17.11;100.00;100514.46;106866;1285;58738;-81
2023/04/28 08:30:31;;;;;;;22.00;10.50;;;;;;;17.21;100.00;100520.67;106843;1285;58600;-81
2023/04/28 08:32:56;;;;;;;18.30;10.20;;;;;;;17.20;100.00;100521.55;106742;1286;58661;-81
2023/04/28 08:35:22;;;;;;;24.60;10.20;;;;;;;17.21;100.00;100509.61;106658;1286;58291;-82
2023/04/28 08:37:48;;;;;;;20.60;10.20;;;;;;;17.30;100.00;100495.59;106872;1285;59329;-81
2023/04/28 08:40:14;;;;;;;20.80;9.10;;;;;;;17.39;100.00;100485.84;106788;1285;58300;-81
2023/04/28 08:42:40;;;;;;;24.20;10.90;;;;;;;17.53;100.00;100482.36;106840;1285;58214;-81
2023/04/28 08:45:07;;;;;;;19.10;9.80;;;;;;;17.68;100.00;100474.45;106747;1286;58333;-81
2023/04/28 08:47:35;;;;;;;23.30;9.90;;;;;;;17.86;100.00;100482.23;106644;1285;58209;-81
2023/04/28 08:50:06;;;;;;;14.90;8.50;;;;;;;17.97;100.00;100484.29;106904;1285;74710;-81
2023/04/28 08:52:32;;;;;;;20.90;9.50;;;;;;;18.00;100.00;100480.68;106826;1285;73414;-80
2023/04/28 08:55:08;;;;;;;19.40;9.40;;;;;;;18.02;100.00;100481.94;106892;1285;58663;-81
2023/04/28 08:57:53;;;;;;;17.80;8.90;;;;;;;18.10;100.00;100482.65;106872;1285;61111;-81
2023/04/28 09:00:19;;;;;;;16.90;9.50;;;;;;;18.25;100.00;100479.48;106881;1285;73678;-81
2023/04/28 09:02:45;;;;;;;17.20;8.40;;;;;;;18.35;100.00;100472.45;106751;1285;58197;-81
2023/04/28 09:05:12;;;;;;;12.30;7.10;;;;;;;18.36;100.00;100467.27;106573;1285;59241;-81
2023/04/28 09:07:39;;;;;;;11.20;7.00;;;;;;;18.40;100.00;100464.60;106728;1286;58176;-82
2023/04/28 09:10:15;;;;;;;14.80;8.00;;;;;;;18.47;100.00;100459.39;106755;1286;58296;-82
2023/04/28 09:12:40;;;;;;;19.60;8.40;;;;;;;18.61;100.00;100460.40;106909;1283;74398;-82
2023/04/28 09:15:08;;;;;;;12.50;7.20;;;;;;;18.73;100.00;100454.73;107097;1283;58368;-81
2023/04/28 09:17:50;;;;;;;17.90;8.60;;;;;;;18.79;100.00;100453.14;107065;1283;74321;-81
2023/04/28 09:20:20;;;;;;;20.60;8.60;;;;;;;18.93;100.00;100449.35;106875;1283;60577;-82
2023/04/28 09:22:45;;;;;;;18.00;7.50;;;;;;;19.11;100.00;100451.19;106649;1282;59978;-82
2023/04/28 09:25:11;;;;;;;14.60;7.50;;;;;;;19.13;100.00;100447.23;106478;1283;58379;-83
2023/04/28 09:27:37;;;;;;;11.30;6.60;;;;;;;19.10;100.00;100449.52;106315;1287;58348;-83
2023/04/28 09:30:03;;;;;;;11.40;5.60;;;;;;;19.12;100.00;100453.02;106531;1288;58266;-84
2023/04/28 09:32:29;;;;;;;12.40;6.00;;;;;;;19.04;100.00;100452.00;106588;1287;58588;-84
2023/04/28 09:34:55;;;;;;;11.20;5.30;;;;;;;19.10;100.00;100450.36;106462;1288;58386;-83
2023/04/28 09:37:23;;;;;;;9.90;5.00;;;;;;;19.15;100.00;100446.05;106572;1288;58262;-84
2023/04/28 09:39:51;;;;;;;12.30;5.00;;;;;;;19.12;100.00;100445.48;106332;1289;72727;-84
2023/04/28 09:42:39;;;;;;;12.10;5.30;;;;;;;19.14;100.00;100443.58;106333;1287;62474;-85
2023/04/28 09:45:08;;;;;;;10.80;5.30;;;;;;;19.18;100.00;100448.56;106568;1287;60255;-86
2023/04/28 09:47:42;;;;;;;7.90;4.70;;;;;;;19.24;100.00;100442.27;106586;1288;72565;-85
2023/04/28 09:50:11;;;;;;;8.20;4.90;;;;;;;19.28;100.00;100444.30;106451;1288;74405;-85
2023/04/28 09:52:37;;;;;;;8.60;4.30;;;;;;;19.27;100.00;100442.86;106234;1291;73427;-85
2023/04/28 09:55:05;;;;;;;7.20;4.40;;;;;;;19.27;100.00;100443.93;106180;1293;58686;-86
2023/04/28 09:57:32;;;;;;;9.30;4.30;;;;;;;19.10;100.00;100446.31;106085;1291;60102;-87
2023/04/28 09:59:59;;;;;;;7.20;4.50;;;;;;;18.99;100.00;100446.53;106331;1289;73618;-86
2023/04/28 10:02:25;;;;;;;11.20;4.50;;;;;;;19.01;100.00;100445.21;106061;1292;74741;-87
2023/04/28 10:04:51;;;;;;;10.20;4.80;;;;;;;18.99;100.00;100448.48;106345;1290;58869;-86
2023/04/28 10:07:19;;;;;;;10.90;4.30;;;;;;;18.97;100.00;100447.58;106353;1289;58522;-84
2023/04/28 10:09:49;;;;;;;7.40;4.00;;;;;;;18.96;100.00;100450.67;106315;1289;60114;-86
2023/04/28 10:12:22;;;;;;;8.30;4.20;;;;;;;18.94;100.00;100451.73;106379;1290;74594;-86
2023/04/28 10:14:49;;;;;;;9.50;4.60;;;;;;;18.96;100.00;100457.06;106260;1290;73874;-86
2023/04/28 10:17:16;;;;;;;7.70;3.90;;;;;;;18.99;100.00;100455.76;106203;1290;73467;-85
2023/04/28 10:19:44;;;;;;;8.40;4.80;;;;;;;19.20;100.00;100455.83;106361;1289;61686;-86
2023/04/28 10:22:13;;;;;;;7.70;4.40;;;;;;;19.39;100.00;100453.25;106218;1290;59138;-87
2023/04/28 10:25:01;;;;;;;7.20;4.00;;;;;;;19.54;100.00;100458.51;106630;1286;73779;-88
2023/04/28 10:27:30;;;;;;;6.80;4.20;;;;;;;19.62;100.00;100458.15;106436;1286;380345;-87
2023/04/28 10:30:18;;;;;;;7.10;3.80;;;;;;;19.62;100.00;100462.46;106687;1286;73540;-87
2023/04/28 10:32:47;;;;;;;9.90;4.00;;;;;;;19.52;100.00;100460.60;106816;1283;60621;-88
2023/04/28 10:35:31;;;;;;;6.90;4.10;;;;;;;19.55;100.00;100457.32;106875;1283;58472;-87
2023/04/28 10:38:09;;;;;;;8.20;4.20;;;;;;;19.66;100.00;100456.00;106859;1283;74190;-87
2023/04/28 10:40:35;;;;;;;11.50;4.60;;;;;;;19.70;100.00;100455.46;107089;1283;74454;-87
2023/04/28 10:43:02;;;;;;;8.10;4.50;;;;;;;19.67;100.00;100445.59;106854;1283;58330;-86
2023/04/28 10:45:52;;;;;;;6.90;4.10;;;;;;;19.66;100.00;100442.17;106891;1283;58254;-87
2023/04/28 10:48:22;;;;;;;9.20;4.20;;;;;;;19.58;100.00;100439.04;107086;1283;61306;-87
2023/04/28 10:53:44;;;;;;;8.90;5.30;;;;;;;19.54;100.00;100438.41;107059;1283;73526;-87
2023/04/28 10:56:25;;;;;;;9.40;5.10;;;;;;;19.42;100.00;100435.61;107013;1283;73306;-87
2023/04/28 10:58:55;;;;;;;8.00;4.60;;;;;;;19.39;100.00;100431.23;106549;1283;60830;-85